createdAt,value
2022-09-18T00:00:33.605Z,89.56
2022-09-18T00:04:14.355Z,89.67
2022-09-18T00:07:47.195Z,89.72
2022-09-18T00:11:27.434Z,89.76
2022-09-18T00:15:01.140Z,89.85
2022-09-18T00:18:38.065Z,89.89
2022-09-18T00:22:14.374Z,89.88
2022-09-18T00:25:51.719Z,89.85
2022-09-18T00:29:28.325Z,89.87
2022-09-18T00:33:05.215Z,89.88
2022-09-18T00:36:42.479Z,89.92
2022-09-18T00:40:18.894Z,89.85
2022-09-18T00:44:34.380Z,89.82
2022-09-18T00:47:50.696Z,89.76
2022-09-18T00:51:26.210Z,89.74
2022-09-18T00:55:08.658Z,89.72
2022-09-18T00:58:37.940Z,89.75
2022-09-18T01:02:14.824Z,89.75
2022-09-18T01:06:16.034Z,89.77
2022-09-18T01:09:58.957Z,89.85
2022-09-18T01:13:49.885Z,89.91
2022-09-18T01:17:06.183Z,90.01
2022-09-18T01:20:56.424Z,90.14
2022-09-18T01:24:41.786Z,90.31
2022-09-18T01:28:14.662Z,90.45
2022-09-18T01:32:14.417Z,90.55
2022-09-18T01:35:41.637Z,90.68
2022-09-18T01:43:16.129Z,90.91
2022-09-18T01:46:50.508Z,90.97
2022-09-18T01:50:29.438Z,91.07
2022-09-18T01:54:08.451Z,91.13
2022-09-18T01:57:47.439Z,91.14
2022-09-18T02:01:20.533Z,91.18
2022-09-18T02:04:56.863Z,91.25
2022-09-18T02:08:48.298Z,91.21
2022-09-18T02:12:08.509Z,91.25
2022-09-18T02:15:46.239Z,91.18
2022-09-18T02:19:28.656Z,91.21
2022-09-18T02:23:03.267Z,91.21
2022-09-18T02:26:35.477Z,91.21
2022-09-18T02:30:11.068Z,91.13
2022-09-18T02:33:46.358Z,91.11
2022-09-18T02:37:54.500Z,91.04
2022-09-18T02:41:51.022Z,90.96
2022-09-18T02:45:28.024Z,90.89
2022-09-18T02:48:55.873Z,90.77
2022-09-18T02:52:30.016Z,90.69
2022-09-18T02:56:09.676Z,90.61
2022-09-18T02:59:43.897Z,90.57
2022-09-18T03:03:14.444Z,90.47
2022-09-18T03:06:46.897Z,90.47
2022-09-18T03:10:22.977Z,90.44
2022-09-18T03:13:59.818Z,90.39
2022-09-18T03:17:37.322Z,90.33
2022-09-18T03:21:13.626Z,90.30
2022-09-18T03:24:50.176Z,90.32
2022-09-18T03:28:26.960Z,90.45
2022-09-18T03:32:04.019Z,90.47
2022-09-18T03:35:40.638Z,90.57
2022-09-18T03:39:18.657Z,90.65
2022-09-18T03:42:54.285Z,90.63
2022-09-18T03:46:31.593Z,90.69
2022-09-18T03:50:08.198Z,90.76
2022-09-18T03:53:45.926Z,90.82
2022-09-18T03:57:21.330Z,90.88
2022-09-18T04:00:58.094Z,91.01
2022-09-18T04:04:35.659Z,91.11
2022-09-18T04:08:17.937Z,91.21
2022-09-18T04:11:54.478Z,91.32
2022-09-18T04:15:29.146Z,91.31
2022-09-18T04:19:05.475Z,91.36
2022-09-18T04:22:42.257Z,91.35
2022-09-18T04:26:19.559Z,91.39
2022-09-18T04:29:55.948Z,91.42
2022-09-18T04:33:32.644Z,91.40
2022-09-18T04:37:10.665Z,91.41
2022-09-18T04:40:54.483Z,91.40
2022-09-18T04:44:23.486Z,91.44
2022-09-18T04:48:00.084Z,91.40
2022-09-18T04:51:36.762Z,91.45
2022-09-18T04:58:51.346Z,91.46
2022-09-18T05:02:27.165Z,91.45
2022-09-18T05:06:04.187Z,91.41
2022-09-18T05:09:41.181Z,91.39
2022-09-18T05:13:17.699Z,91.43
2022-09-18T05:16:54.940Z,91.42
2022-09-18T05:20:34.164Z,91.39
2022-09-18T05:24:08.524Z,91.37
2022-09-18T05:27:52.844Z,91.42
2022-09-18T05:31:21.802Z,91.42
2022-09-18T05:34:59.086Z,91.44
2022-09-18T05:38:35.279Z,91.46
2022-09-18T05:42:12.697Z,91.44
2022-09-18T05:45:49.290Z,91.40
2022-09-18T05:49:25.815Z,91.43
2022-09-18T05:53:05.495Z,91.45
2022-09-18T05:56:38.947Z,91.42
2022-09-18T06:00:16.001Z,91.39
2022-09-18T06:03:52.632Z,91.37
2022-09-18T06:07:32.785Z,91.34
2022-09-18T06:11:06.437Z,91.27
2022-09-18T06:14:43.357Z,91.32
2022-09-18T06:18:20.176Z,91.23
2022-09-18T06:21:56.549Z,91.23
2022-09-18T06:25:33.484Z,91.13
2022-09-18T06:29:10.237Z,91.15
2022-09-18T06:32:47.308Z,91.05
2022-09-18T06:36:24.038Z,90.88
2022-09-18T06:40:19.681Z,90.61
2022-09-18T06:43:38.047Z,90.53
2022-09-18T06:47:14.724Z,90.63
2022-09-18T06:50:56.242Z,90.61
2022-09-18T06:54:28.550Z,90.57
2022-09-18T06:58:05.086Z,90.42
2022-09-18T07:01:42.405Z,90.02
2022-09-18T07:05:18.668Z,89.67
2022-09-18T07:08:56.788Z,89.30
2022-09-18T07:12:32.449Z,89.03
2022-09-18T07:16:09.260Z,88.63
2022-09-18T07:19:45.950Z,88.04
2022-09-18T07:23:24.499Z,87.60
2022-09-18T07:26:59.339Z,87.25
2022-09-18T07:30:40.348Z,86.83
2022-09-18T07:34:13.246Z,86.44
2022-09-18T07:37:49.639Z,86.41
2022-09-18T07:41:26.622Z,86.22
2022-09-18T07:45:03.997Z,85.99
2022-09-18T07:48:40.496Z,85.81
2022-09-18T07:52:18.258Z,85.55
2022-09-18T07:55:56.019Z,85.15
2022-09-18T07:59:30.838Z,84.61
2022-09-18T08:03:11.998Z,83.96
2022-09-18T08:06:44.178Z,83.78
2022-09-18T08:10:20.921Z,83.40
2022-09-18T08:13:57.756Z,83.36
2022-09-18T08:21:11.962Z,83.15
2022-09-18T08:25:08.617Z,82.81
2022-09-18T08:28:25.054Z,82.41
2022-09-18T08:32:06.510Z,82.46
2022-09-18T08:35:38.744Z,82.17
2022-09-18T08:39:16.156Z,81.86
2022-09-18T08:43:31.424Z,81.67
2022-09-18T08:47:08.923Z,81.64
2022-09-18T08:50:18.428Z,81.44
2022-09-18T08:57:56.810Z,81.43
2022-09-18T09:01:19.189Z,80.98
2022-09-18T09:05:02.468Z,80.79
2022-09-18T09:08:58.216Z,80.58
2022-09-18T09:12:19.784Z,80.52
2022-09-18T09:16:04.191Z,80.57
2022-09-18T09:19:35.346Z,80.21
2022-09-18T09:23:05.523Z,79.79
2022-09-18T09:26:37.304Z,79.69
2022-09-18T09:30:16.636Z,79.58
2022-09-18T09:34:11.042Z,79.06
2022-09-18T09:37:50.820Z,79.44
2022-09-18T09:41:31.789Z,79.14
2022-09-18T09:44:53.088Z,79.05
2022-09-18T09:48:41.498Z,78.94
2022-09-18T09:52:11.349Z,78.81
2022-09-18T09:55:39.107Z,78.61
2022-09-18T09:59:31.925Z,78.83
2022-09-18T10:03:23.466Z,78.79
2022-09-18T10:06:54.797Z,78.25
2022-09-18T10:10:17.155Z,77.69
2022-09-18T10:13:50.608Z,77.91
2022-09-18T10:17:19.080Z,77.58
2022-09-18T10:20:59.199Z,77.41
2022-09-18T10:24:49.591Z,77.37
2022-09-18T10:28:13.702Z,76.82
2022-09-18T10:31:56.097Z,76.27
2022-09-18T10:35:41.833Z,75.81
2022-09-18T10:39:00.304Z,76.13
2022-09-18T10:42:34.944Z,72.50
2022-09-18T10:49:57.021Z,67.64
2022-09-18T10:53:24.740Z,67.85
2022-09-18T10:57:26.400Z,66.99
2022-09-18T11:00:42.408Z,66.21
2022-09-18T11:04:18.088Z,66.95
2022-09-18T11:07:58.638Z,67.36
2022-09-18T11:11:38.908Z,69.24
2022-09-18T11:15:08.267Z,70.93
2022-09-18T11:18:47.969Z,72.06
2022-09-18T11:22:42.981Z,72.98
2022-09-18T11:26:27.082Z,74.25
2022-09-18T11:29:42.428Z,74.83
2022-09-18T11:33:50.000Z,75.24
2022-09-18T11:37:13.386Z,75.53
2022-09-18T11:40:50.748Z,75.71
2022-09-18T11:44:29.062Z,75.74
2022-09-18T11:48:15.371Z,75.35
2022-09-18T11:52:17.707Z,75.04
2022-09-18T11:55:46.708Z,75.18
2022-09-18T11:59:44.359Z,75.07
2022-09-18T12:03:00.774Z,74.71
2022-09-18T12:06:58.457Z,74.95
2022-09-18T12:10:32.598Z,75.01
2022-09-18T12:13:45.810Z,75.39
2022-09-18T12:21:03.392Z,75.88
2022-09-18T12:24:32.279Z,76.10
2022-09-18T12:28:31.588Z,76.33
2022-09-18T12:32:04.775Z,76.51
2022-09-18T12:36:04.784Z,76.53
2022-09-18T12:39:26.850Z,76.56
2022-09-18T12:43:20.148Z,76.61
2022-09-18T12:46:51.748Z,76.23
2022-09-18T12:50:39.942Z,75.74
2022-09-18T12:54:17.052Z,76.14
2022-09-18T12:57:33.106Z,76.70
2022-09-18T13:01:08.985Z,76.96
2022-09-18T13:04:48.995Z,77.31
2022-09-18T13:08:36.134Z,77.36
2022-09-18T13:11:58.912Z,77.51
2022-09-18T13:15:38.757Z,77.68
2022-09-18T13:19:14.268Z,77.66
2022-09-18T13:22:45.037Z,76.97
2022-09-18T13:26:21.718Z,76.12
2022-09-18T13:29:59.253Z,76.10
2022-09-18T13:33:32.626Z,76.12
2022-09-18T13:37:17.088Z,76.97
2022-09-18T13:41:08.444Z,77.80
2022-09-18T13:44:29.367Z,78.49
2022-09-18T13:51:37.754Z,78.61
2022-09-18T13:55:13.270Z,78.22
2022-09-18T13:59:20.653Z,78.26
2022-09-18T14:02:28.654Z,78.13
2022-09-18T14:06:42.761Z,77.84
2022-09-18T14:09:59.767Z,77.64
2022-09-18T14:13:29.909Z,77.60
2022-09-18T14:17:14.769Z,77.73
2022-09-18T14:20:34.210Z,77.56
2022-09-18T14:24:36.389Z,77.55
2022-09-18T14:27:57.404Z,77.29
2022-09-18T14:31:29.830Z,77.37
2022-09-18T14:35:30.536Z,77.28
2022-09-18T14:38:44.310Z,77.52
2022-09-18T14:42:42.080Z,77.50
2022-09-18T14:45:57.837Z,76.78
2022-09-18T14:49:43.597Z,76.22
2022-09-18T14:53:28.159Z,76.18
2022-09-18T14:56:50.734Z,75.84
2022-09-18T15:00:30.336Z,75.72
2022-09-18T15:04:05.197Z,75.83
2022-09-18T15:07:40.359Z,75.65
2022-09-18T15:11:18.052Z,76.01
2022-09-18T15:14:52.828Z,76.29
2022-09-18T15:18:31.040Z,76.63
2022-09-18T15:22:06.094Z,76.94
2022-09-18T15:25:45.999Z,77.24
2022-09-18T15:29:43.013Z,77.00
2022-09-18T15:33:05.360Z,75.94
2022-09-18T15:36:37.055Z,75.54
2022-09-18T15:40:19.384Z,75.21
2022-09-18T15:43:50.388Z,75.31
2022-09-18T15:47:33.194Z,75.74
2022-09-18T15:51:25.902Z,75.83
2022-09-18T15:54:38.182Z,76.06
2022-09-18T15:58:43.614Z,76.58
2022-09-18T16:01:51.596Z,77.16
2022-09-18T16:05:31.427Z,77.58
2022-09-18T16:09:07.798Z,78.03
2022-09-18T16:12:49.408Z,78.45
2022-09-18T16:16:24.344Z,78.84
2022-09-18T16:20:02.096Z,79.13
2022-09-18T16:23:50.129Z,79.30
2022-09-18T16:27:22.542Z,79.32
2022-09-18T16:30:47.257Z,79.52
2022-09-18T16:34:29.685Z,79.71
2022-09-18T16:37:59.327Z,79.54
2022-09-18T16:41:36.200Z,79.69
2022-09-18T16:45:15.546Z,79.80
2022-09-18T16:48:50.060Z,79.76
2022-09-18T16:52:26.909Z,79.92
2022-09-18T16:56:07.036Z,80.11
2022-09-18T16:59:42.866Z,80.04
2022-09-18T17:03:18.347Z,79.98
2022-09-18T17:06:53.552Z,80.13
2022-09-18T17:10:32.029Z,79.84
2022-09-18T17:14:07.385Z,79.35
2022-09-18T17:17:45.634Z,79.21
2022-09-18T17:21:21.006Z,79.34
2022-09-18T17:24:57.508Z,79.56
2022-09-18T17:28:36.298Z,79.71
2022-09-18T17:32:12.101Z,79.57
2022-09-18T17:35:48.077Z,79.73
2022-09-18T17:39:24.798Z,80.13
2022-09-18T17:43:01.687Z,80.62
2022-09-18T17:46:38.247Z,80.82
2022-09-18T17:50:15.016Z,81.14
2022-09-18T17:53:58.132Z,81.26
2022-09-18T17:57:31.285Z,81.49
2022-09-18T18:01:13.329Z,81.81
2022-09-18T18:04:43.584Z,82.12
2022-09-18T18:08:19.378Z,82.20
2022-09-18T18:11:59.219Z,82.30
2022-09-18T18:15:32.826Z,82.24
2022-09-18T18:19:14.496Z,82.21
2022-09-18T18:22:46.959Z,82.02
2022-09-18T18:26:22.989Z,81.87
2022-09-18T18:30:00.557Z,82.06
2022-09-18T18:33:37.206Z,81.96
2022-09-18T18:37:13.337Z,81.91
2022-09-18T18:40:52.422Z,82.13
2022-09-18T18:44:27.463Z,82.05
2022-09-18T18:48:06.371Z,82.11
2022-09-18T18:51:43.873Z,82.35
2022-09-18T18:55:18.753Z,82.47
2022-09-18T18:59:00.174Z,82.81
2022-09-18T19:02:38.179Z,83.02
2022-09-18T19:06:08.138Z,83.19
2022-09-18T19:09:44.818Z,83.14
2022-09-18T19:13:25.126Z,83.15
2022-09-18T19:16:59.233Z,83.08
2022-09-18T19:20:36.827Z,82.90
2022-09-18T19:24:12.568Z,82.62
2022-09-18T19:27:48.839Z,82.72
2022-09-18T19:31:28.194Z,82.75
2022-09-18T19:35:02.587Z,82.87
2022-09-18T19:38:39.344Z,83.14
2022-09-18T19:42:17.437Z,83.40
2022-09-18T19:45:52.801Z,83.86
2022-09-18T19:49:33.638Z,83.68
2022-09-18T19:53:06.905Z,83.66
2022-09-18T19:56:48.185Z,83.37
2022-09-18T20:00:20.314Z,82.98
2022-09-18T20:03:59.158Z,82.80
2022-09-18T20:07:34.259Z,82.87
2022-09-18T20:11:10.239Z,82.85
2022-09-18T20:14:46.869Z,83.20
2022-09-18T20:18:24.179Z,83.27
2022-09-18T20:22:03.117Z,83.24
2022-09-18T20:25:39.379Z,83.35
2022-09-18T20:29:16.130Z,83.51
2022-09-18T20:32:51.926Z,83.63
2022-09-18T20:36:28.914Z,83.50
2022-09-18T20:40:07.173Z,83.70
2022-09-18T20:43:44.330Z,83.79
2022-09-18T20:47:18.207Z,84.00
2022-09-18T20:50:56.648Z,84.21
2022-09-18T20:54:32.787Z,84.41
2022-09-18T20:58:08.810Z,84.96
2022-09-18T21:01:47.198Z,85.05
2022-09-18T21:05:22.166Z,85.09
2022-09-18T21:09:00.975Z,85.17
2022-09-18T21:12:39.212Z,85.28
2022-09-18T21:16:14.252Z,85.29
2022-09-18T21:19:50.544Z,85.39
2022-09-18T21:23:44.649Z,85.26
2022-09-18T21:27:03.208Z,85.12
2022-09-18T21:30:39.808Z,84.87
2022-09-18T21:34:24.633Z,84.77
2022-09-18T21:37:54.708Z,84.70
2022-09-18T21:41:30.791Z,84.61
2022-09-18T21:45:07.802Z,84.34
2022-09-18T21:48:44.609Z,84.15
2022-09-18T21:52:20.550Z,84.34
2022-09-18T21:56:08.654Z,84.59
2022-09-18T21:59:36.187Z,84.84
2022-09-18T22:03:10.962Z,85.18
2022-09-18T22:06:51.081Z,85.51
2022-09-18T22:10:25.861Z,85.72
2022-09-18T22:14:04.011Z,85.91
2022-09-18T22:17:39.311Z,86.13
2022-09-18T22:21:31.392Z,86.20
2022-09-18T22:24:52.111Z,86.25
2022-09-18T22:28:28.820Z,86.41
2022-09-18T22:32:06.133Z,86.66
2022-09-18T22:35:42.197Z,86.87
2022-09-18T22:39:20.671Z,87.08
2022-09-18T22:42:56.483Z,87.19
2022-09-18T22:46:33.353Z,87.22
2022-09-18T22:50:09.771Z,87.21
2022-09-18T22:53:52.719Z,87.01
2022-09-18T22:57:23.412Z,86.92
2022-09-18T23:01:14.498Z,86.67
2022-09-18T23:04:37.039Z,86.53
2022-09-18T23:08:13.813Z,86.51
2022-09-18T23:11:54.317Z,86.53
2022-09-18T23:15:27.573Z,86.72
2022-09-18T23:19:14.432Z,86.73
2022-09-18T23:22:41.251Z,86.74
2022-09-18T23:26:23.283Z,86.87
2022-09-18T23:29:54.255Z,86.95
2022-09-18T23:33:31.235Z,87.04
2022-09-18T23:37:08.216Z,87.17
2022-09-18T23:40:44.692Z,87.09
2022-09-18T23:44:22.881Z,87.11
2022-09-18T23:47:58.275Z,87.17
2022-09-18T23:51:37.392Z,87.05
2022-09-18T23:55:12.174Z,87.06
2022-09-18T23:58:53.417Z,86.86
